sensor_id;sensor_type;location;lat;lon;timestamp;temperature;humidity
76293;DHT22;67256;51.154;4.164;2023-04-25T00:00:11;11.00;65.10
76293;DHT22;67256;51.154;4.164;2023-04-25T00:02:37;11.00;65.00
76293;DHT22;67256;51.154;4.164;2023-04-25T00:05:03;11.10;64.60
76293;DHT22;67256;51.154;4.164;2023-04-25T00:07:30;11.10;64.60
76293;DHT22;67256;51.154;4.164;2023-04-25T00:09:56;11.00;65.00
76293;DHT22;67256;51.154;4.164;2023-04-25T00:12:22;11.10;64.90
76293;DHT22;67256;51.154;4.164;2023-04-25T00:14:48;11.20;64.70
76293;DHT22;67256;51.154;4.164;2023-04-25T00:17:19;11.10;65.00
76293;DHT22;67256;51.154;4.164;2023-04-25T00:19:44;11.10;65.10
76293;DHT22;67256;51.154;4.164;2023-04-25T00:22:12;11.20;64.90
76293;DHT22;67256;51.154;4.164;2023-04-25T00:24:37;11.10;65.20
76293;DHT22;67256;51.154;4.164;2023-04-25T00:27:03;11.20;64.90
76293;DHT22;67256;51.154;4.164;2023-04-25T00:29:29;11.20;64.80
76293;DHT22;67256;51.154;4.164;2023-04-25T00:31:54;11.20;64.80
76293;DHT22;67256;51.154;4.164;2023-04-25T00:34:20;11.10;65.00
76293;DHT22;67256;51.154;4.164;2023-04-25T00:36:46;11.10;64.80
76293;DHT22;67256;51.154;4.164;2023-04-25T00:39:12;11.20;64.70
76293;DHT22;67256;51.154;4.164;2023-04-25T00:41:38;11.10;64.80
76293;DHT22;67256;51.154;4.164;2023-04-25T00:44:05;11.00;65.50
76293;DHT22;67256;51.154;4.164;2023-04-25T00:46:32;11.10;65.30
76293;DHT22;67256;51.154;4.164;2023-04-25T00:48:58;11.10;65.30
76293;DHT22;67256;51.154;4.164;2023-04-25T00:51:24;11.20;65.00
76293;DHT22;67256;51.154;4.164;2023-04-25T00:53:51;11.10;64.70
76293;DHT22;67256;51.154;4.164;2023-04-25T00:56:17;11.10;65.30
76293;DHT22;67256;51.154;4.164;2023-04-25T00:58:43;11.10;65.10
76293;DHT22;67256;51.154;4.164;2023-04-25T01:01:10;11.00;65.60
76293;DHT22;67256;51.154;4.164;2023-04-25T01:03:38;11.10;65.00
76293;DHT22;67256;51.154;4.164;2023-04-25T01:06:07;11.10;65.00
76293;DHT22;67256;51.154;4.164;2023-04-25T01:08:34;11.20;64.70
76293;DHT22;67256;51.154;4.164;2023-04-25T01:11:00;11.20;64.60
76293;DHT22;67256;51.154;4.164;2023-04-25T01:13:25;11.10;65.30
76293;DHT22;67256;51.154;4.164;2023-04-25T01:15:51;11.20;65.10
76293;DHT22;67256;51.154;4.164;2023-04-25T01:18:18;11.00;65.40
76293;DHT22;67256;51.154;4.164;2023-04-25T01:20:45;10.70;66.20
76293;DHT22;67256;51.154;4.164;2023-04-25T01:23:11;10.70;66.60
76293;DHT22;67256;51.154;4.164;2023-04-25T01:25:37;10.80;66.50
76293;DHT22;67256;51.154;4.164;2023-04-25T01:28:04;10.80;66.20
76293;DHT22;67256;51.154;4.164;2023-04-25T01:30:30;10.90;66.10
76293;DHT22;67256;51.154;4.164;2023-04-25T01:32:56;10.90;66.10
76293;DHT22;67256;51.154;4.164;2023-04-25T01:35:23;10.80;66.00
76293;DHT22;67256;51.154;4.164;2023-04-25T01:37:50;10.80;67.00
76293;DHT22;67256;51.154;4.164;2023-04-25T01:40:17;10.80;66.40
76293;DHT22;67256;51.154;4.164;2023-04-25T01:42:45;10.90;66.10
76293;DHT22;67256;51.154;4.164;2023-04-25T01:45:11;10.90;65.80
76293;DHT22;67256;51.154;4.164;2023-04-25T01:47:38;10.70;66.50
76293;DHT22;67256;51.154;4.164;2023-04-25T01:50:06;10.50;67.20
76293;DHT22;67256;51.154;4.164;2023-04-25T01:52:32;10.40;67.70
76293;DHT22;67256;51.154;4.164;2023-04-25T01:54:59;10.40;67.20
76293;DHT22;67256;51.154;4.164;2023-04-25T01:57:25;10.40;67.00
76293;DHT22;67256;51.154;4.164;2023-04-25T01:59:51;10.40;67.00
76293;DHT22;67256;51.154;4.164;2023-04-25T02:02:17;10.50;66.80
76293;DHT22;67256;51.154;4.164;2023-04-25T02:04:42;10.50;66.60
76293;DHT22;67256;51.154;4.164;2023-04-25T02:07:08;10.40;66.50
76293;DHT22;67256;51.154;4.164;2023-04-25T02:09:34;10.40;66.70
76293;DHT22;67256;51.154;4.164;2023-04-25T02:11:59;10.40;67.10
76293;DHT22;67256;51.154;4.164;2023-04-25T02:14:25;10.20;67.80
76293;DHT22;67256;51.154;4.164;2023-04-25T02:16:52;10.20;67.60
76293;DHT22;67256;51.154;4.164;2023-04-25T02:19:17;10.20;67.50
76293;DHT22;67256;51.154;4.164;2023-04-25T02:21:43;10.30;68.00
76293;DHT22;67256;51.154;4.164;2023-04-25T02:24:09;10.20;68.00
76293;DHT22;67256;51.154;4.164;2023-04-25T02:26:34;10.20;68.40
76293;DHT22;67256;51.154;4.164;2023-04-25T02:29:00;10.10;68.80
76293;DHT22;67256;51.154;4.164;2023-04-25T02:31:26;10.10;68.90
76293;DHT22;67256;51.154;4.164;2023-04-25T02:33:52;10.00;69.50
76293;DHT22;67256;51.154;4.164;2023-04-25T02:36:17;10.10;69.50
76293;DHT22;67256;51.154;4.164;2023-04-25T02:38:43;10.10;69.00
76293;DHT22;67256;51.154;4.164;2023-04-25T02:41:09;10.20;68.70
76293;DHT22;67256;51.154;4.164;2023-04-25T02:43:35;10.30;68.50
76293;DHT22;67256;51.154;4.164;2023-04-25T02:46:00;10.40;68.60
76293;DHT22;67256;51.154;4.164;2023-04-25T02:48:26;10.30;68.10
76293;DHT22;67256;51.154;4.164;2023-04-25T02:50:52;10.30;68.40
76293;DHT22;67256;51.154;4.164;2023-04-25T02:53:17;10.20;68.40
76293;DHT22;67256;51.154;4.164;2023-04-25T02:55:43;10.20;68.60
76293;DHT22;67256;51.154;4.164;2023-04-25T02:58:09;10.40;68.00
76293;DHT22;67256;51.154;4.164;2023-04-25T03:00:35;10.40;67.30
76293;DHT22;67256;51.154;4.164;2023-04-25T03:03:01;10.30;67.50
76293;DHT22;67256;51.154;4.164;2023-04-25T03:05:27;10.40;67.40
76293;DHT22;67256;51.154;4.164;2023-04-25T03:07:52;10.40;67.20
76293;DHT22;67256;51.154;4.164;2023-04-25T03:10:18;10.50;66.80
76293;DHT22;67256;51.154;4.164;2023-04-25T03:12:44;10.50;66.60
76293;DHT22;67256;51.154;4.164;2023-04-25T03:15:09;10.40;66.10
76293;DHT22;67256;51.154;4.164;2023-04-25T03:17:35;10.40;66.60
76293;DHT22;67256;51.154;4.164;2023-04-25T03:20:01;10.20;67.10
76293;DHT22;67256;51.154;4.164;2023-04-25T03:22:27;10.30;67.10
76293;DHT22;67256;51.154;4.164;2023-04-25T03:24:52;10.20;67.10
76293;DHT22;67256;51.154;4.164;2023-04-25T03:27:18;10.30;66.90
76293;DHT22;67256;51.154;4.164;2023-04-25T03:29:44;10.30;67.20
76293;DHT22;67256;51.154;4.164;2023-04-25T03:32:09;10.30;67.40
76293;DHT22;67256;51.154;4.164;2023-04-25T03:34:35;10.20;67.50
76293;DHT22;67256;51.154;4.164;2023-04-25T03:37:01;9.70;67.00
76293;DHT22;67256;51.154;4.164;2023-04-25T03:39:27;9.30;67.00
76293;DHT22;67256;51.154;4.164;2023-04-25T03:41:52;9.10;67.50
76293;DHT22;67256;51.154;4.164;2023-04-25T03:44:18;9.10;66.90
76293;DHT22;67256;51.154;4.164;2023-04-25T03:46:44;9.00;67.20
76293;DHT22;67256;51.154;4.164;2023-04-25T03:49:09;9.10;67.00
76293;DHT22;67256;51.154;4.164;2023-04-25T03:51:35;9.10;66.60
76293;DHT22;67256;51.154;4.164;2023-04-25T03:54:01;9.10;66.30
76293;DHT22;67256;51.154;4.164;2023-04-25T03:56:27;9.00;66.70
76293;DHT22;67256;51.154;4.164;2023-04-25T03:58:52;9.20;66.20
76293;DHT22;67256;51.154;4.164;2023-04-25T04:01:18;9.30;65.90
76293;DHT22;67256;51.154;4.164;2023-04-25T04:03:44;9.40;65.60
76293;DHT22;67256;51.154;4.164;2023-04-25T04:06:10;9.30;65.30
76293;DHT22;67256;51.154;4.164;2023-04-25T04:08:36;9.30;65.50
76293;DHT22;67256;51.154;4.164;2023-04-25T04:11:01;9.40;65.50
76293;DHT22;67256;51.154;4.164;2023-04-25T04:13:28;9.50;64.50
76293;DHT22;67256;51.154;4.164;2023-04-25T04:15:55;9.60;64.40
76293;DHT22;67256;51.154;4.164;2023-04-25T04:18:21;9.80;64.20
76293;DHT22;67256;51.154;4.164;2023-04-25T04:20:47;9.80;63.70
76293;DHT22;67256;51.154;4.164;2023-04-25T04:23:13;9.80;63.50
76293;DHT22;67256;51.154;4.164;2023-04-25T04:25:39;9.60;63.40
76293;DHT22;67256;51.154;4.164;2023-04-25T04:28:05;9.70;63.40
76293;DHT22;67256;51.154;4.164;2023-04-25T04:30:31;9.80;63.20
76293;DHT22;67256;51.154;4.164;2023-04-25T04:32:59;9.80;63.20
76293;DHT22;67256;51.154;4.164;2023-04-25T04:35:26;9.80;62.50
76293;DHT22;67256;51.154;4.164;2023-04-25T04:37:52;9.80;63.10
76293;DHT22;67256;51.154;4.164;2023-04-25T04:40:18;9.90;62.30
76293;DHT22;67256;51.154;4.164;2023-04-25T04:42:45;9.70;62.80
76293;DHT22;67256;51.154;4.164;2023-04-25T04:45:13;9.80;62.90
76293;DHT22;67256;51.154;4.164;2023-04-25T04:47:39;9.70;62.70
76293;DHT22;67256;51.154;4.164;2023-04-25T04:50:09;9.70;62.70
76293;DHT22;67256;51.154;4.164;2023-04-25T04:52:37;9.80;62.40
76293;DHT22;67256;51.154;4.164;2023-04-25T04:55:03;10.00;62.00
76293;DHT22;67256;51.154;4.164;2023-04-25T04:57:30;10.00;61.70
76293;DHT22;67256;51.154;4.164;2023-04-25T04:59:56;10.10;61.70
76293;DHT22;67256;51.154;4.164;2023-04-25T05:02:22;10.10;61.70
76293;DHT22;67256;51.154;4.164;2023-04-25T05:04:48;10.00;62.00
76293;DHT22;67256;51.154;4.164;2023-04-25T05:07:14;10.00;62.40
76293;DHT22;67256;51.154;4.164;2023-04-25T05:09:39;10.00;62.40
76293;DHT22;67256;51.154;4.164;2023-04-25T05:12:05;10.00;62.30
76293;DHT22;67256;51.154;4.164;2023-04-25T05:14:31;9.90;63.20
76293;DHT22;67256;51.154;4.164;2023-04-25T05:16:57;10.00;63.10
76293;DHT22;67256;51.154;4.164;2023-04-25T05:19:23;9.80;64.00
76293;DHT22;67256;51.154;4.164;2023-04-25T05:21:49;9.70;64.50
76293;DHT22;67256;51.154;4.164;2023-04-25T05:24:15;9.60;64.90
76293;DHT22;67256;51.154;4.164;2023-04-25T05:26:41;9.50;64.80
76293;DHT22;67256;51.154;4.164;2023-04-25T05:29:06;9.50;65.60
76293;DHT22;67256;51.154;4.164;2023-04-25T05:31:32;9.50;65.50
76293;DHT22;67256;51.154;4.164;2023-04-25T05:33:58;9.40;65.60
76293;DHT22;67256;51.154;4.164;2023-04-25T05:36:24;9.40;65.90
76293;DHT22;67256;51.154;4.164;2023-04-25T05:38:51;9.60;65.50
76293;DHT22;67256;51.154;4.164;2023-04-25T05:41:17;9.70;65.00
76293;DHT22;67256;51.154;4.164;2023-04-25T05:43:42;9.70;64.70
76293;DHT22;67256;51.154;4.164;2023-04-25T05:46:12;9.80;64.60
76293;DHT22;67256;51.154;4.164;2023-04-25T05:48:38;9.70;65.00
76293;DHT22;67256;51.154;4.164;2023-04-25T05:51:04;9.60;64.90
76293;DHT22;67256;51.154;4.164;2023-04-25T05:53:30;9.50;65.40
76293;DHT22;67256;51.154;4.164;2023-04-25T05:55:56;9.50;65.50
76293;DHT22;67256;51.154;4.164;2023-04-25T05:58:21;9.50;65.30
76293;DHT22;67256;51.154;4.164;2023-04-25T06:00:47;9.60;64.70
76293;DHT22;67256;51.154;4.164;2023-04-25T06:03:13;9.80;64.60
76293;DHT22;67256;51.154;4.164;2023-04-25T06:05:43;9.80;64.00
76293;DHT22;67256;51.154;4.164;2023-04-25T06:08:09;9.90;63.70
76293;DHT22;67256;51.154;4.164;2023-04-25T06:10:36;9.90;63.40
76293;DHT22;67256;51.154;4.164;2023-04-25T06:13:02;10.00;63.20
76293;DHT22;67256;51.154;4.164;2023-04-25T06:15:28;10.10;62.90
76293;DHT22;67256;51.154;4.164;2023-04-25T06:17:54;10.00;63.40
76293;DHT22;67256;51.154;4.164;2023-04-25T06:20:20;10.00;62.70
76293;DHT22;67256;51.154;4.164;2023-04-25T06:22:49;9.90;62.70
76293;DHT22;67256;51.154;4.164;2023-04-25T06:25:15;10.00;62.50
76293;DHT22;67256;51.154;4.164;2023-04-25T06:27:41;10.10;62.40
76293;DHT22;67256;51.154;4.164;2023-04-25T06:30:07;10.00;63.40
76293;DHT22;67256;51.154;4.164;2023-04-25T06:32:32;9.90;63.10
76293;DHT22;67256;51.154;4.164;2023-04-25T06:35:00;9.80;63.60
76293;DHT22;67256;51.154;4.164;2023-04-25T06:37:26;9.90;62.80
76293;DHT22;67256;51.154;4.164;2023-04-25T06:39:52;9.60;63.70
76293;DHT22;67256;51.154;4.164;2023-04-25T06:42:17;9.20;65.10
76293;DHT22;67256;51.154;4.164;2023-04-25T06:44:43;9.20;65.50
76293;DHT22;67256;51.154;4.164;2023-04-25T06:47:09;9.20;65.40
76293;DHT22;67256;51.154;4.164;2023-04-25T06:49:34;9.20;66.40
76293;DHT22;67256;51.154;4.164;2023-04-25T06:52:00;8.90;66.60
76293;DHT22;67256;51.154;4.164;2023-04-25T06:54:26;9.00;66.90
76293;DHT22;67256;51.154;4.164;2023-04-25T06:56:55;9.00;66.60
76293;DHT22;67256;51.154;4.164;2023-04-25T06:59:21;9.10;66.50
76293;DHT22;67256;51.154;4.164;2023-04-25T07:01:46;9.10;65.10
76293;DHT22;67256;51.154;4.164;2023-04-25T07:04:12;9.30;65.10
76293;DHT22;67256;51.154;4.164;2023-04-25T07:06:38;9.40;64.10
76293;DHT22;67256;51.154;4.164;2023-04-25T07:09:08;9.30;63.80
76293;DHT22;67256;51.154;4.164;2023-04-25T07:11:35;9.30;64.10
76293;DHT22;67256;51.154;4.164;2023-04-25T07:14:01;9.30;64.80
76293;DHT22;67256;51.154;4.164;2023-04-25T07:16:30;9.30;64.50
76293;DHT22;67256;51.154;4.164;2023-04-25T07:18:55;9.10;64.30
76293;DHT22;67256;51.154;4.164;2023-04-25T07:21:21;9.10;64.70
76293;DHT22;67256;51.154;4.164;2023-04-25T07:23:47;9.00;65.10
76293;DHT22;67256;51.154;4.164;2023-04-25T07:26:12;9.00;65.30
76293;DHT22;67256;51.154;4.164;2023-04-25T07:28:38;9.20;66.00
76293;DHT22;67256;51.154;4.164;2023-04-25T07:31:04;9.20;64.30
76293;DHT22;67256;51.154;4.164;2023-04-25T07:33:30;9.20;63.90
76293;DHT22;67256;51.154;4.164;2023-04-25T07:35:57;9.30;63.50
76293;DHT22;67256;51.154;4.164;2023-04-25T07:38:23;9.40;63.90
76293;DHT22;67256;51.154;4.164;2023-04-25T07:40:49;9.50;61.80
76293;DHT22;67256;51.154;4.164;2023-04-25T07:43:15;9.40;60.10
76293;DHT22;67256;51.154;4.164;2023-04-25T07:45:46;9.30;59.60
76293;DHT22;67256;51.154;4.164;2023-04-25T07:48:16;9.20;59.30
76293;DHT22;67256;51.154;4.164;2023-04-25T07:50:42;9.30;59.20
76293;DHT22;67256;51.154;4.164;2023-04-25T07:53:08;9.20;58.80
76293;DHT22;67256;51.154;4.164;2023-04-25T07:55:34;9.40;59.10
76293;DHT22;67256;51.154;4.164;2023-04-25T07:57:59;9.50;59.60
76293;DHT22;67256;51.154;4.164;2023-04-25T08:00:25;9.60;59.00
76293;DHT22;67256;51.154;4.164;2023-04-25T08:02:51;9.60;58.60
76293;DHT22;67256;51.154;4.164;2023-04-25T08:05:17;9.30;58.80
76293;DHT22;67256;51.154;4.164;2023-04-25T08:07:42;9.10;59.30
76293;DHT22;67256;51.154;4.164;2023-04-25T08:10:09;9.10;60.50
76293;DHT22;67256;51.154;4.164;2023-04-25T08:12:35;9.10;63.30
76293;DHT22;67256;51.154;4.164;2023-04-25T08:15:00;9.00;64.50
76293;DHT22;67256;51.154;4.164;2023-04-25T08:17:27;9.00;65.60
76293;DHT22;67256;51.154;4.164;2023-04-25T08:19:52;9.00;66.00
76293;DHT22;67256;51.154;4.164;2023-04-25T08:22:18;8.90;67.70
76293;DHT22;67256;51.154;4.164;2023-04-25T08:24:44;8.90;68.50
76293;DHT22;67256;51.154;4.164;2023-04-25T08:27:09;8.90;69.10
76293;DHT22;67256;51.154;4.164;2023-04-25T08:29:36;8.90;69.00
76293;DHT22;67256;51.154;4.164;2023-04-25T08:32:02;8.90;69.40
76293;DHT22;67256;51.154;4.164;2023-04-25T08:34:27;8.80;68.80
76293;DHT22;67256;51.154;4.164;2023-04-25T08:36:53;9.00;67.30
76293;DHT22;67256;51.154;4.164;2023-04-25T08:39:19;9.10;65.00
76293;DHT22;67256;51.154;4.164;2023-04-25T08:41:46;9.30;64.90
76293;DHT22;67256;51.154;4.164;2023-04-25T08:44:12;9.50;63.40
76293;DHT22;67256;51.154;4.164;2023-04-25T08:46:41;9.50;62.80
76293;DHT22;67256;51.154;4.164;2023-04-25T08:49:07;9.70;63.40
76293;DHT22;67256;51.154;4.164;2023-04-25T08:51:38;9.80;61.90
76293;DHT22;67256;51.154;4.164;2023-04-25T08:54:10;10.00;63.00
76293;DHT22;67256;51.154;4.164;2023-04-25T08:56:38;9.80;62.30
76293;DHT22;67256;51.154;4.164;2023-04-25T08:59:06;9.70;61.10
76293;DHT22;67256;51.154;4.164;2023-04-25T09:01:34;9.80;61.80
76293;DHT22;67256;51.154;4.164;2023-04-25T09:04:01;10.00;61.10
76293;DHT22;67256;51.154;4.164;2023-04-25T09:06:29;10.00;58.40
76293;DHT22;67256;51.154;4.164;2023-04-25T09:09:04;10.00;57.80
76293;DHT22;67256;51.154;4.164;2023-04-25T09:11:31;10.00;58.00
76293;DHT22;67256;51.154;4.164;2023-04-25T09:19:27;10.00;56.90
76293;DHT22;67256;51.154;4.164;2023-04-25T09:22:00;10.00;57.20
76293;DHT22;67256;51.154;4.164;2023-04-25T09:24:40;9.80;57.50
76293;DHT22;67256;51.154;4.164;2023-04-25T09:27:09;9.80;57.00
76293;DHT22;67256;51.154;4.164;2023-04-25T09:29:36;10.00;56.60
76293;DHT22;67256;51.154;4.164;2023-04-25T09:32:20;10.00;55.60
76293;DHT22;67256;51.154;4.164;2023-04-25T09:34:54;9.90;57.60
76293;DHT22;67256;51.154;4.164;2023-04-25T09:37:28;9.90;58.40
76293;DHT22;67256;51.154;4.164;2023-04-25T09:39:58;10.00;58.20
76293;DHT22;67256;51.154;4.164;2023-04-25T09:42:31;10.10;58.10
76293;DHT22;67256;51.154;4.164;2023-04-25T09:44:58;10.10;57.60
76293;DHT22;67256;51.154;4.164;2023-04-25T09:47:25;10.10;58.10
76293;DHT22;67256;51.154;4.164;2023-04-25T09:49:54;9.90;60.70
76293;DHT22;67256;51.154;4.164;2023-04-25T09:52:22;9.80;64.00
76293;DHT22;67256;51.154;4.164;2023-04-25T09:54:50;9.50;65.80
76293;DHT22;67256;51.154;4.164;2023-04-25T09:57:17;9.20;67.70
76293;DHT22;67256;51.154;4.164;2023-04-25T09:59:45;9.20;67.70
76293;DHT22;67256;51.154;4.164;2023-04-25T10:02:12;9.10;67.70
76293;DHT22;67256;51.154;4.164;2023-04-25T10:04:38;9.10;66.80
76293;DHT22;67256;51.154;4.164;2023-04-25T10:07:08;9.10;67.30
76293;DHT22;67256;51.154;4.164;2023-04-25T10:09:37;9.30;67.00
76293;DHT22;67256;51.154;4.164;2023-04-25T10:12:03;9.40;64.90
76293;DHT22;67256;51.154;4.164;2023-04-25T10:14:32;9.50;63.90
76293;DHT22;67256;51.154;4.164;2023-04-25T10:16:59;9.50;63.30
76293;DHT22;67256;51.154;4.164;2023-04-25T10:19:25;9.50;62.70
76293;DHT22;67256;51.154;4.164;2023-04-25T10:22:13;9.70;61.50
76293;DHT22;67256;51.154;4.164;2023-04-25T10:24:40;9.70;61.60
76293;DHT22;67256;51.154;4.164;2023-04-25T10:27:07;9.70;61.50
76293;DHT22;67256;51.154;4.164;2023-04-25T10:29:33;10.00;60.80
76293;DHT22;67256;51.154;4.164;2023-04-25T10:32:00;10.10;60.30
76293;DHT22;67256;51.154;4.164;2023-04-25T10:34:43;10.40;58.20
76293;DHT22;67256;51.154;4.164;2023-04-25T10:37:12;10.50;55.60
76293;DHT22;67256;51.154;4.164;2023-04-25T10:39:41;10.60;56.50
76293;DHT22;67256;51.154;4.164;2023-04-25T10:42:07;10.50;54.40
76293;DHT22;67256;51.154;4.164;2023-04-25T10:44:34;10.40;55.10
76293;DHT22;67256;51.154;4.164;2023-04-25T10:47:01;10.40;55.40
76293;DHT22;67256;51.154;4.164;2023-04-25T10:52:24;10.60;55.30
76293;DHT22;67256;51.154;4.164;2023-04-25T10:54:56;10.70;54.70
76293;DHT22;67256;51.154;4.164;2023-04-25T11:00:16;10.60;50.70
76293;DHT22;67256;51.154;4.164;2023-04-25T11:02:52;10.60;50.30
76293;DHT22;67256;51.154;4.164;2023-04-25T11:05:30;10.50;50.10
76293;DHT22;67256;51.154;4.164;2023-04-25T11:07:58;10.40;47.40
76293;DHT22;67256;51.154;4.164;2023-04-25T11:10:29;10.30;48.30
76293;DHT22;67256;51.154;4.164;2023-04-25T11:12:55;10.40;49.90
76293;DHT22;67256;51.154;4.164;2023-04-25T11:15:21;10.60;51.60
76293;DHT22;67256;51.154;4.164;2023-04-25T11:17:46;10.70;52.50
76293;DHT22;67256;51.154;4.164;2023-04-25T11:20:13;10.60;47.60
76293;DHT22;67256;51.154;4.164;2023-04-25T11:22:40;10.60;49.40
76293;DHT22;67256;51.154;4.164;2023-04-25T11:25:10;10.50;49.20
76293;DHT22;67256;51.154;4.164;2023-04-25T11:27:55;10.40;49.50
76293;DHT22;67256;51.154;4.164;2023-04-25T11:30:26;10.50;49.30
76293;DHT22;67256;51.154;4.164;2023-04-25T11:32:52;10.60;49.70
76293;DHT22;67256;51.154;4.164;2023-04-25T11:35:19;10.60;50.00
76293;DHT22;67256;51.154;4.164;2023-04-25T11:37:48;10.60;50.00
76293;DHT22;67256;51.154;4.164;2023-04-25T11:40:14;10.50;54.80
76293;DHT22;67256;51.154;4.164;2023-04-25T11:42:43;10.30;55.50
76293;DHT22;67256;51.154;4.164;2023-04-25T11:45:09;10.10;56.30
76293;DHT22;67256;51.154;4.164;2023-04-25T11:47:36;10.20;57.00
76293;DHT22;67256;51.154;4.164;2023-04-25T11:50:03;10.30;54.10
76293;DHT22;67256;51.154;4.164;2023-04-25T11:52:46;10.50;53.90
76293;DHT22;67256;51.154;4.164;2023-04-25T11:55:17;10.40;52.40
76293;DHT22;67256;51.154;4.164;2023-04-25T11:57:45;10.50;52.10
76293;DHT22;67256;51.154;4.164;2023-04-25T12:00:14;10.80;51.30
76293;DHT22;67256;51.154;4.164;2023-04-25T12:02:43;10.70;48.80
76293;DHT22;67256;51.154;4.164;2023-04-25T12:05:10;10.70;48.70
76293;DHT22;67256;51.154;4.164;2023-04-25T12:07:36;10.70;48.00
76293;DHT22;67256;51.154;4.164;2023-04-25T12:10:07;10.40;48.70
76293;DHT22;67256;51.154;4.164;2023-04-25T12:12:36;10.40;50.00
76293;DHT22;67256;51.154;4.164;2023-04-25T12:15:12;10.40;49.80
76293;DHT22;67256;51.154;4.164;2023-04-25T12:17:41;10.50;50.00
76293;DHT22;67256;51.154;4.164;2023-04-25T12:20:15;10.50;50.40
76293;DHT22;67256;51.154;4.164;2023-04-25T12:22:43;10.60;50.80
76293;DHT22;67256;51.154;4.164;2023-04-25T12:25:42;10.70;50.30
76293;DHT22;67256;51.154;4.164;2023-04-25T12:28:15;10.80;51.30
76293;DHT22;67256;51.154;4.164;2023-04-25T12:33:26;10.90;52.20
76293;DHT22;67256;51.154;4.164;2023-04-25T12:35:53;10.50;52.80
76293;DHT22;67256;51.154;4.164;2023-04-25T12:38:29;10.30;53.40
76293;DHT22;67256;51.154;4.164;2023-04-25T12:40:59;10.20;54.00
76293;DHT22;67256;51.154;4.164;2023-04-25T12:43:25;10.20;53.40
76293;DHT22;67256;51.154;4.164;2023-04-25T12:45:52;10.30;53.40
76293;DHT22;67256;51.154;4.164;2023-04-25T12:48:19;10.20;51.80
76293;DHT22;67256;51.154;4.164;2023-04-25T12:50:45;10.30;52.20
76293;DHT22;67256;51.154;4.164;2023-04-25T12:53:14;10.20;50.80
76293;DHT22;67256;51.154;4.164;2023-04-25T12:55:41;10.30;50.50
76293;DHT22;67256;51.154;4.164;2023-04-25T12:58:06;10.30;50.20
76293;DHT22;67256;51.154;4.164;2023-04-25T13:00:33;10.30;50.10
76293;DHT22;67256;51.154;4.164;2023-04-25T13:02:59;10.40;50.00
76293;DHT22;67256;51.154;4.164;2023-04-25T13:05:25;10.50;50.00
76293;DHT22;67256;51.154;4.164;2023-04-25T13:07:50;10.40;51.50
76293;DHT22;67256;51.154;4.164;2023-04-25T13:10:17;10.50;51.40
76293;DHT22;67256;51.154;4.164;2023-04-25T13:12:43;10.50;51.10
76293;DHT22;67256;51.154;4.164;2023-04-25T13:15:09;10.40;50.10
76293;DHT22;67256;51.154;4.164;2023-04-25T13:17:39;10.40;49.00
76293;DHT22;67256;51.154;4.164;2023-04-25T13:20:06;10.40;49.50
76293;DHT22;67256;51.154;4.164;2023-04-25T13:22:34;10.50;49.50
76293;DHT22;67256;51.154;4.164;2023-04-25T13:25:03;10.40;50.40
76293;DHT22;67256;51.154;4.164;2023-04-25T13:27:29;10.40;51.80
76293;DHT22;67256;51.154;4.164;2023-04-25T13:29:55;10.30;53.10
76293;DHT22;67256;51.154;4.164;2023-04-25T13:32:21;10.30;53.60
76293;DHT22;67256;51.154;4.164;2023-04-25T13:34:47;10.40;54.00
76293;DHT22;67256;51.154;4.164;2023-04-25T13:37:13;10.50;53.30
76293;DHT22;67256;51.154;4.164;2023-04-25T13:39:39;10.40;51.00
76293;DHT22;67256;51.154;4.164;2023-04-25T13:42:04;10.50;52.80
76293;DHT22;67256;51.154;4.164;2023-04-25T13:44:30;10.70;51.80
76293;DHT22;67256;51.154;4.164;2023-04-25T13:46:55;10.70;51.80
76293;DHT22;67256;51.154;4.164;2023-04-25T13:49:21;10.50;51.00
76293;DHT22;67256;51.154;4.164;2023-04-25T13:51:48;10.50;51.70
76293;DHT22;67256;51.154;4.164;2023-04-25T13:54:13;10.60;51.80
76293;DHT22;67256;51.154;4.164;2023-04-25T13:56:39;10.70;51.50
76293;DHT22;67256;51.154;4.164;2023-04-25T13:59:07;10.70;51.00
76293;DHT22;67256;51.154;4.164;2023-04-25T14:01:33;10.70;50.80
76293;DHT22;67256;51.154;4.164;2023-04-25T14:04:01;10.70;51.00
76293;DHT22;67256;51.154;4.164;2023-04-25T14:06:27;10.80;49.70
76293;DHT22;67256;51.154;4.164;2023-04-25T14:08:53;10.90;49.60
76293;DHT22;67256;51.154;4.164;2023-04-25T14:11:19;11.00;49.90
76293;DHT22;67256;51.154;4.164;2023-04-25T14:13:45;10.90;49.90
76293;DHT22;67256;51.154;4.164;2023-04-25T14:16:12;10.80;48.80
76293;DHT22;67256;51.154;4.164;2023-04-25T14:18:37;10.60;48.90
76293;DHT22;67256;51.154;4.164;2023-04-25T14:21:03;10.40;49.30
76293;DHT22;67256;51.154;4.164;2023-04-25T14:23:30;10.50;51.10
76293;DHT22;67256;51.154;4.164;2023-04-25T14:25:55;10.60;51.20
76293;DHT22;67256;51.154;4.164;2023-04-25T14:28:21;10.60;51.20
76293;DHT22;67256;51.154;4.164;2023-04-25T14:30:47;10.50;51.30
76293;DHT22;67256;51.154;4.164;2023-04-25T14:33:12;10.40;50.60
76293;DHT22;67256;51.154;4.164;2023-04-25T14:35:39;10.30;52.10
76293;DHT22;67256;51.154;4.164;2023-04-25T14:38:05;10.40;51.00
76293;DHT22;67256;51.154;4.164;2023-04-25T14:40:31;10.30;50.40
76293;DHT22;67256;51.154;4.164;2023-04-25T14:42:56;10.30;51.00
76293;DHT22;67256;51.154;4.164;2023-04-25T14:45:22;10.30;51.00
76293;DHT22;67256;51.154;4.164;2023-04-25T14:47:48;10.50;51.00
76293;DHT22;67256;51.154;4.164;2023-04-25T14:50:13;10.60;50.70
76293;DHT22;67256;51.154;4.164;2023-04-25T14:52:39;10.50;48.60
76293;DHT22;67256;51.154;4.164;2023-04-25T14:55:05;10.60;48.30
76293;DHT22;67256;51.154;4.164;2023-04-25T14:57:34;10.70;47.30
76293;DHT22;67256;51.154;4.164;2023-04-25T15:00:01;10.60;47.90
76293;DHT22;67256;51.154;4.164;2023-04-25T15:02:28;10.60;48.50
76293;DHT22;67256;51.154;4.164;2023-04-25T15:04:54;10.80;47.90
76293;DHT22;67256;51.154;4.164;2023-04-25T15:07:21;10.80;49.00
76293;DHT22;67256;51.154;4.164;2023-04-25T15:09:47;10.60;48.20
76293;DHT22;67256;51.154;4.164;2023-04-25T15:12:13;10.60;48.20
76293;DHT22;67256;51.154;4.164;2023-04-25T15:14:40;10.80;49.20
76293;DHT22;67256;51.154;4.164;2023-04-25T15:17:05;10.80;47.70
76293;DHT22;67256;51.154;4.164;2023-04-25T15:19:31;10.70;47.20
76293;DHT22;67256;51.154;4.164;2023-04-25T15:21:58;10.60;48.40
76293;DHT22;67256;51.154;4.164;2023-04-25T15:24:26;10.50;48.40
76293;DHT22;67256;51.154;4.164;2023-04-25T15:26:52;10.60;49.40
76293;DHT22;67256;51.154;4.164;2023-04-25T15:29:18;10.70;48.40
76293;DHT22;67256;51.154;4.164;2023-04-25T15:31:44;10.70;48.90
76293;DHT22;67256;51.154;4.164;2023-04-25T15:34:10;10.60;48.80
76293;DHT22;67256;51.154;4.164;2023-04-25T15:36:36;10.70;49.70
76293;DHT22;67256;51.154;4.164;2023-04-25T15:39:02;10.60;49.90
76293;DHT22;67256;51.154;4.164;2023-04-25T15:41:28;10.70;49.70
76293;DHT22;67256;51.154;4.164;2023-04-25T15:43:54;10.70;50.30
76293;DHT22;67256;51.154;4.164;2023-04-25T15:46:20;10.80;49.00
76293;DHT22;67256;51.154;4.164;2023-04-25T15:48:47;10.90;49.00